Time;durP1;ratioP1;P1;durP2;ratioP2;P2;SDS_P1;SDS_P2;PMS_P1;PMS_P2;Temp;Humidity;BMP_temperature;BMP_pressure;BME280_temperature;BME280_humidity;BME280_pressure;Samples;Min_cycle;Max_cycle;Signal;HPM_P1;HPM_P2
2021/03/15 00:00:47;;;;;;;8.17;4.23;;;;;;;;;;5005725;28;20230;-47
2021/03/15 00:03:13;;;;;;;10.13;4.17;;;;;;;;;;5004979;28;20199;-48
2021/03/15 00:05:38;;;;;;;12.67;3.93;;;;;;;;;;5004368;28;20220;-49
2021/03/15 00:08:04;;;;;;;10.67;4.53;;;;;;;;;;5001606;28;20627;-47
2021/03/15 00:10:30;;;;;;;7.87;4.67;;;;;;;;;;5001054;28;20202;-48
2021/03/15 00:12:55;;;;;;;14.07;5.73;;;;;;;;;;4999478;28;20671;-48
2021/03/15 00:15:22;;;;;;;13.23;5.97;;;;;;;;;;5001209;28;20215;-48
2021/03/15 00:17:48;;;;;;;11.97;5.27;;;;;;;;;;4991303;28;20235;-50
2021/03/15 00:20:16;;;;;;;11.80;5.77;;;;;;;;;;5004830;28;20187;-47
2021/03/15 00:22:42;;;;;;;10.47;5.13;;;;;;;;;;5005188;28;20241;-47
2021/03/15 00:25:09;;;;;;;13.53;5.10;;;;;;;;;;4989079;28;20219;-48
2021/03/15 00:27:35;;;;;;;12.93;5.80;;;;;;;;;;5001975;28;20196;-49
2021/03/15 00:30:01;;;;;;;10.33;5.50;;;;;;;;;;5005685;28;20544;-48
2021/03/15 00:32:26;;;;;;;13.27;6.40;;;;;;;;;;5005433;28;20583;-49
2021/03/15 00:34:52;;;;;;;11.03;5.60;;;;;;;;;;5002817;28;20250;-49
2021/03/15 00:37:17;;;;;;;10.83;6.20;;;;;;;;;;4991707;28;20206;-48
2021/03/15 00:39:42;;;;;;;13.50;6.40;;;;;;;;;;5004356;28;20234;-46
2021/03/15 00:42:08;;;;;;;9.10;5.60;;;;;;;;;;4991301;28;20183;-48
2021/03/15 00:44:34;;;;;;;13.83;6.17;;;;;;;;;;5002648;28;20670;-49
2021/03/15 00:47:00;;;;;;;8.67;5.50;;;;;;;;;;5001730;28;20198;-47
2021/03/15 00:49:25;;;;;;;11.93;5.80;;;;;;;;;;4990861;28;20187;-46
2021/03/15 00:51:50;;;;;;;11.87;5.30;;;;;;;;;;5004276;28;20188;-47
2021/03/15 00:54:16;;;;;;;12.30;5.30;;;;;;;;;;5003151;28;20262;-48
2021/03/15 00:56:41;;;;;;;9.43;4.23;;;;;;;;;;5008117;28;20199;-48
2021/03/15 00:59:06;;;;;;;8.20;4.30;;;;;;;;;;5004003;28;20211;-47
2021/03/15 01:01:32;;;;;;;6.73;3.97;;;;;;;;;;5003752;28;20633;-47
2021/03/15 01:03:57;;;;;;;10.60;4.50;;;;;;;;;;5004178;28;20638;-47
2021/03/15 01:06:22;;;;;;;11.97;4.90;;;;;;;;;;5006529;28;20690;-47
2021/03/15 01:08:48;;;;;;;6.30;3.73;;;;;;;;;;5003304;28;20722;-48
2021/03/15 01:11:13;;;;;;;9.60;4.40;;;;;;;;;;5002476;28;20191;-49
2021/03/15 01:13:39;;;;;;;14.50;4.63;;;;;;;;;;5002406;28;20191;-46
2021/03/15 01:16:04;;;;;;;14.40;4.73;;;;;;;;;;5007851;28;20706;-48
2021/03/15 01:18:30;;;;;;;9.27;4.27;;;;;;;;;;4986662;28;20215;-47
2021/03/15 01:20:56;;;;;;;8.87;4.33;;;;;;;;;;5004379;28;20246;-47
2021/03/15 01:23:21;;;;;;;7.60;2.77;;;;;;;;;;4996141;28;20204;-47
2021/03/15 01:25:47;;;;;;;12.93;4.63;;;;;;;;;;5007597;28;20293;-46
2021/03/15 01:28:14;;;;;;;10.60;4.53;;;;;;;;;;4999575;28;20615;-47
2021/03/15 01:30:42;;;;;;;14.43;4.37;;;;;;;;;;5004607;28;20350;-46
2021/03/15 01:33:07;;;;;;;9.60;4.17;;;;;;;;;;5002036;28;20230;-47
2021/03/15 01:35:33;;;;;;;8.57;3.27;;;;;;;;;;5007359;28;20245;-47
2021/03/15 01:38:00;;;;;;;8.13;3.13;;;;;;;;;;5004953;28;20211;-46
2021/03/15 01:40:26;;;;;;;6.50;3.40;;;;;;;;;;5005469;28;20206;-48
2021/03/15 01:42:51;;;;;;;11.17;3.93;;;;;;;;;;5003242;28;20230;-48
2021/03/15 01:45:17;;;;;;;7.40;2.73;;;;;;;;;;5007852;28;20231;-48
2021/03/15 01:47:44;;;;;;;9.73;3.60;;;;;;;;;;5005904;28;20223;-45
2021/03/15 01:50:13;;;;;;;6.93;3.57;;;;;;;;;;5001822;28;20214;-47
2021/03/15 01:52:40;;;;;;;8.20;4.20;;;;;;;;;;5002719;28;20191;-48
2021/03/15 01:55:08;;;;;;;8.27;4.20;;;;;;;;;;5001578;28;20215;-46
2021/03/15 01:57:34;;;;;;;8.10;3.90;;;;;;;;;;5002946;28;20659;-47
2021/03/15 02:00:00;;;;;;;9.57;3.80;;;;;;;;;;4981792;28;20191;-44
2021/03/15 02:02:26;;;;;;;7.80;4.33;;;;;;;;;;5002387;28;20203;-47
2021/03/15 02:04:53;;;;;;;10.33;4.80;;;;;;;;;;4995692;28;20304;-49
2021/03/15 02:07:18;;;;;;;9.07;3.60;;;;;;;;;;4982636;28;20220;-46
2021/03/15 02:09:43;;;;;;;6.07;3.53;;;;;;;;;;4998760;28;20606;-47
2021/03/15 02:12:44;;;;;;;7.93;3.80;;;;;;;;;;5001161;28;20188;-48
2021/03/15 02:15:17;;;;;;;8.93;4.40;;;;;;;;;;5000971;28;20286;-46
2021/03/15 02:18:00;;;;;;;8.50;4.03;;;;;;;;;;5005436;28;20195;-47
2021/03/15 02:20:44;;;;;;;8.13;3.73;;;;;;;;;;4999575;28;20687;-47
2021/03/15 02:23:14;;;;;;;11.17;5.03;;;;;;;;;;5001014;28;20248;-48
2021/03/15 02:25:59;;;;;;;8.17;4.43;;;;;;;;;;4985352;28;20757;-49
2021/03/15 02:28:40;;;;;;;9.37;4.40;;;;;;;;;;4985088;28;20267;-47
2021/03/15 02:31:42;;;;;;;8.13;4.70;;;;;;;;;;5002908;28;20199;-46
2021/03/15 02:34:32;;;;;;;8.33;5.37;;;;;;;;;;5000926;28;20275;-48
2021/03/15 02:37:01;;;;;;;6.20;4.63;;;;;;;;;;5010053;28;20187;-47
2021/03/15 02:39:32;;;;;;;4.33;3.80;;;;;;;;;;5004956;28;20697;-49
2021/03/15 02:42:01;;;;;;;4.93;3.57;;;;;;;;;;5004959;28;20315;-46
2021/03/15 02:44:28;;;;;;;6.83;3.33;;;;;;;;;;5002939;28;20738;-47
2021/03/15 02:46:55;;;;;;;8.43;4.80;;;;;;;;;;4987970;28;20195;-46
2021/03/15 02:49:23;;;;;;;5.90;3.63;;;;;;;;;;5015842;28;20595;-49
2021/03/15 02:51:50;;;;;;;4.30;3.90;;;;;;;;;;5006086;28;20199;-48
2021/03/15 02:54:17;;;;;;;5.20;4.23;;;;;;;;;;5015365;28;20853;-45
2021/03/15 02:56:48;;;;;;;7.50;4.77;;;;;;;;;;5016685;28;20200;-45
2021/03/15 02:59:16;;;;;;;5.23;3.73;;;;;;;;;;5001847;28;20218;-46
2021/03/15 03:01:44;;;;;;;13.07;4.30;;;;;;;;;;5004439;28;20199;-47
2021/03/15 03:04:10;;;;;;;5.93;3.57;;;;;;;;;;5005559;28;20196;-47
2021/03/15 03:06:37;;;;;;;5.90;2.73;;;;;;;;;;5008997;28;20196;-47
2021/03/15 03:09:06;;;;;;;3.07;2.57;;;;;;;;;;5001529;28;20199;-51
2021/03/15 03:11:33;;;;;;;4.83;3.43;;;;;;;;;;5008945;28;20195;-46
2021/03/15 03:14:01;;;;;;;4.57;3.43;;;;;;;;;;5010082;28;20215;-47
2021/03/15 03:16:33;;;;;;;6.03;3.20;;;;;;;;;;5005472;28;20635;-46
2021/03/15 03:19:00;;;;;;;2.23;1.63;;;;;;;;;;5017444;28;20233;-47
2021/03/15 03:21:25;;;;;;;2.00;1.63;;;;;;;;;;4992834;28;20222;-47
2021/03/15 03:23:56;;;;;;;2.43;2.20;;;;;;;;;;5007189;28;20203;-45
2021/03/15 03:26:23;;;;;;;2.10;1.07;;;;;;;;;;4993148;28;20269;-48
2021/03/15 03:28:53;;;;;;;1.57;1.30;;;;;;;;;;5009697;28;20191;-47
2021/03/15 03:31:21;;;;;;;1.90;1.53;;;;;;;;;;5014345;28;20203;-47
2021/03/15 03:33:47;;;;;;;2.00;1.40;;;;;;;;;;4985680;28;20279;-48
2021/03/15 03:36:14;;;;;;;1.23;1.10;;;;;;;;;;4994044;28;20215;-48
2021/03/15 03:38:39;;;;;;;0.73;0.70;;;;;;;;;;5005489;28;20281;-48
2021/03/15 03:41:05;;;;;;;0.80;0.80;;;;;;;;;;5010077;28;20680;-48
2021/03/15 03:43:30;;;;;;;1.47;0.97;;;;;;;;;;5004732;28;20199;-47
2021/03/15 03:45:56;;;;;;;1.70;1.17;;;;;;;;;;5004916;28;20646;-48
2021/03/15 03:48:21;;;;;;;1.80;1.40;;;;;;;;;;5010861;28;20252;-47
2021/03/15 03:50:46;;;;;;;2.20;1.10;;;;;;;;;;5015603;28;20682;-47
2021/03/15 03:53:16;;;;;;;1.00;0.80;;;;;;;;;;5005846;28;20542;-46
2021/03/15 03:55:51;;;;;;;1.80;1.40;;;;;;;;;;4997677;28;20207;-45
2021/03/15 03:58:18;;;;;;;1.07;0.90;;;;;;;;;;5004882;28;20724;-48
2021/03/15 04:00:45;;;;;;;1.20;1.10;;;;;;;;;;5008983;28;20214;-45
2021/03/15 04:03:17;;;;;;;1.83;1.30;;;;;;;;;;5007505;28;20202;-48
2021/03/15 04:05:55;;;;;;;1.87;1.53;;;;;;;;;;5008640;28;20577;-49
2021/03/15 04:08:27;;;;;;;4.53;1.63;;;;;;;;;;5012191;28;20684;-48
2021/03/15 04:10:54;;;;;;;1.57;1.47;;;;;;;;;;5014578;28;20199;-47
2021/03/15 04:13:23;;;;;;;3.00;1.90;;;;;;;;;;5014599;28;20282;-49
2021/03/15 04:15:49;;;;;;;2.50;2.30;;;;;;;;;;5002912;28;20220;-47
2021/03/15 04:18:17;;;;;;;2.57;2.37;;;;;;;;;;5004968;28;20207;-48
2021/03/15 04:20:44;;;;;;;2.37;2.17;;;;;;;;;;5010595;28;20565;-46
2021/03/15 04:23:22;;;;;;;2.53;2.10;;;;;;;;;;5008829;28;20191;-48
2021/03/15 04:25:49;;;;;;;2.20;1.80;;;;;;;;;;4986267;28;20211;-46
2021/03/15 04:28:15;;;;;;;4.33;2.00;;;;;;;;;;4986960;28;20249;-46
2021/03/15 04:30:42;;;;;;;3.13;2.20;;;;;;;;;;4991586;28;20195;-47
2021/03/15 04:33:09;;;;;;;4.03;3.00;;;;;;;;;;4999775;28;20187;-47
2021/03/15 04:35:35;;;;;;;3.60;3.20;;;;;;;;;;5004691;28;20250;-48
2021/03/15 04:38:04;;;;;;;4.20;3.03;;;;;;;;;;5008195;28;20222;-46
2021/03/15 04:40:32;;;;;;;3.90;3.10;;;;;;;;;;5013763;28;20207;-47
2021/03/15 04:43:01;;;;;;;4.40;3.60;;;;;;;;;;4992201;28;20180;-47
2021/03/15 04:45:31;;;;;;;5.10;3.80;;;;;;;;;;5008127;28;20211;-46
2021/03/15 04:48:02;;;;;;;4.47;3.70;;;;;;;;;;5003506;28;20685;-49
2021/03/15 04:50:28;;;;;;;6.00;4.60;;;;;;;;;;5012638;28;20204;-48
2021/03/15 04:52:55;;;;;;;4.37;3.50;;;;;;;;;;4972306;28;20246;-47
2021/03/15 04:55:20;;;;;;;4.87;3.63;;;;;;;;;;5009788;28;20211;-50
2021/03/15 04:57:48;;;;;;;4.57;3.93;;;;;;;;;;5002917;28;20198;-51
2021/03/15 05:00:14;;;;;;;6.63;4.93;;;;;;;;;;5010352;28;20253;-47
2021/03/15 05:02:42;;;;;;;3.20;2.80;;;;;;;;;;5014870;28;20250;-49
2021/03/15 05:05:11;;;;;;;7.03;5.27;;;;;;;;;;5007488;28;20262;-48
2021/03/15 05:07:40;;;;;;;6.27;4.57;;;;;;;;;;5001932;28;20190;-48
2021/03/15 05:10:08;;;;;;;6.47;4.67;;;;;;;;;;5004392;28;20207;-47
2021/03/15 05:12:33;;;;;;;6.23;4.27;;;;;;;;;;4990314;28;20270;-47
2021/03/15 05:14:59;;;;;;;6.20;5.17;;;;;;;;;;4989176;28;20282;-50
2021/03/15 05:17:25;;;;;;;6.10;4.73;;;;;;;;;;5004424;28;20584;-46
2021/03/15 05:19:51;;;;;;;7.17;5.30;;;;;;;;;;4994916;28;20254;-48
2021/03/15 05:22:16;;;;;;;5.87;4.10;;;;;;;;;;5010185;28;20203;-48
2021/03/15 05:24:43;;;;;;;5.93;4.57;;;;;;;;;;5004939;28;20298;-47
2021/03/15 05:27:10;;;;;;;6.03;4.70;;;;;;;;;;5001393;28;20214;-47
2021/03/15 05:29:38;;;;;;;5.23;3.80;;;;;;;;;;4978224;28;20194;-47
2021/03/15 05:32:06;;;;;;;5.63;4.03;;;;;;;;;;5011140;28;20203;-46
2021/03/15 05:34:32;;;;;;;4.87;4.30;;;;;;;;;;5013038;28;20840;-48
2021/03/15 05:37:02;;;;;;;4.97;3.90;;;;;;;;;;5010072;28;20217;-48
2021/03/15 05:39:28;;;;;;;4.40;3.87;;;;;;;;;;4993468;28;20215;-48
2021/03/15 05:41:53;;;;;;;4.93;3.67;;;;;;;;;;5008001;28;20269;-48
2021/03/15 05:44:35;;;;;;;3.83;3.23;;;;;;;;;;5007086;28;20211;-48
2021/03/15 05:47:17;;;;;;;5.93;4.07;;;;;;;;;;5006972;28;20195;-48
2021/03/15 05:50:01;;;;;;;6.47;3.97;;;;;;;;;;5000091;28;20282;-49
2021/03/15 05:52:47;;;;;;;6.10;4.23;;;;;;;;;;5000321;28;20234;-49
2021/03/15 05:55:50;;;;;;;5.30;3.80;;;;;;;;;;5010591;28;20214;-46
2021/03/15 05:58:47;;;;;;;4.87;3.67;;;;;;;;;;5003538;28;20219;-47
2021/03/15 06:01:48;;;;;;;5.90;4.50;;;;;;;;;;4993377;28;20211;-47
2021/03/15 06:04:38;;;;;;;5.50;4.07;;;;;;;;;;5001957;28;20230;-45
2021/03/15 06:07:07;;;;;;;6.37;4.70;;;;;;;;;;5011971;28;20616;-47
2021/03/15 06:09:42;;;;;;;8.93;5.57;;;;;;;;;;5008257;28;20631;-48
2021/03/15 06:12:19;;;;;;;7.27;5.30;;;;;;;;;;5001265;28;20238;-46
2021/03/15 06:14:45;;;;;;;8.33;6.70;;;;;;;;;;5001158;28;20777;-46
2021/03/15 06:17:11;;;;;;;9.70;6.80;;;;;;;;;;5011664;28;20195;-47
2021/03/15 06:19:36;;;;;;;10.43;7.37;;;;;;;;;;5012131;28;20213;-47
2021/03/15 06:22:02;;;;;;;12.13;8.57;;;;;;;;;;5001606;28;20219;-48
2021/03/15 06:24:27;;;;;;;10.23;7.40;;;;;;;;;;5008774;28;20242;-48
2021/03/15 06:26:55;;;;;;;11.37;6.90;;;;;;;;;;5006120;28;20191;-48
2021/03/15 06:29:20;;;;;;;10.83;7.73;;;;;;;;;;5014765;28;20593;-47
2021/03/15 06:31:50;;;;;;;10.63;7.17;;;;;;;;;;5005349;28;20195;-47
2021/03/15 06:34:18;;;;;;;9.40;6.90;;;;;;;;;;5009450;28;20213;-48
2021/03/15 06:36:43;;;;;;;9.07;6.63;;;;;;;;;;4984392;28;20222;-47
2021/03/15 06:39:11;;;;;;;12.80;9.10;;;;;;;;;;5013628;28;20238;-46
2021/03/15 06:41:41;;;;;;;12.07;8.03;;;;;;;;;;4990133;28;20796;-46
2021/03/15 06:44:08;;;;;;;11.87;9.17;;;;;;;;;;5003306;28;20219;-47
2021/03/15 06:46:34;;;;;;;9.83;6.50;;;;;;;;;;4984499;28;20217;-49
2021/03/15 06:48:59;;;;;;;6.93;4.90;;;;;;;;;;4987926;28;20175;-48
2021/03/15 06:51:24;;;;;;;10.33;6.83;;;;;;;;;;4989002;28;20195;-49
2021/03/15 06:53:50;;;;;;;12.23;6.63;;;;;;;;;;5008222;28;20594;-48
2021/03/15 06:56:17;;;;;;;9.10;7.20;;;;;;;;;;4991512;28;20219;-48
2021/03/15 06:58:52;;;;;;;10.20;7.03;;;;;;;;;;5007893;28;20234;-47
2021/03/15 07:01:25;;;;;;;8.50;6.73;;;;;;;;;;5004325;28;20218;-46
2021/03/15 07:04:02;;;;;;;8.33;6.83;;;;;;;;;;5005094;28;20676;-49
2021/03/15 07:06:37;;;;;;;9.70;7.23;;;;;;;;;;4995663;28;20187;-45
2021/03/15 07:09:14;;;;;;;8.03;6.03;;;;;;;;;;5005489;28;20715;-49
2021/03/15 07:11:39;;;;;;;7.40;5.90;;;;;;;;;;5001794;28;20199;-48
2021/03/15 07:14:04;;;;;;;9.27;6.03;;;;;;;;;;5006612;28;20207;-48
2021/03/15 07:16:31;;;;;;;6.83;5.63;;;;;;;;;;5008420;28;20245;-48
2021/03/15 07:19:03;;;;;;;6.37;5.33;;;;;;;;;;5006935;28;20200;-46
2021/03/15 07:21:41;;;;;;;5.87;5.20;;;;;;;;;;5001523;28;20246;-47
2021/03/15 07:24:10;;;;;;;6.07;5.47;;;;;;;;;;5001911;28;20226;-49
2021/03/15 07:26:43;;;;;;;5.53;4.33;;;;;;;;;;5005540;28;20207;-47
2021/03/15 07:29:13;;;;;;;5.20;4.37;;;;;;;;;;5009981;28;20190;-46
2021/03/15 07:31:42;;;;;;;5.60;4.47;;;;;;;;;;5006788;28;20623;-47
2021/03/15 07:34:10;;;;;;;5.03;4.53;;;;;;;;;;5003476;28;20303;-48
2021/03/15 07:36:46;;;;;;;5.57;4.67;;;;;;;;;;5002942;28;20188;-47
2021/03/15 07:39:13;;;;;;;4.50;3.83;;;;;;;;;;5011780;28;21821;-48
2021/03/15 07:41:39;;;;;;;5.57;4.87;;;;;;;;;;5004965;28;20191;-48
2021/03/15 07:44:20;;;;;;;6.83;5.80;;;;;;;;;;4994165;28;20653;-48
2021/03/15 07:46:45;;;;;;;6.43;5.07;;;;;;;;;;5005253;28;20194;-47
2021/03/15 07:49:37;;;;;;;6.73;6.13;;;;;;;;;;5004537;28;20195;-48
2021/03/15 07:52:05;;;;;;;5.00;4.30;;;;;;;;;;5009414;28;20800;-47
2021/03/15 07:54:35;;;;;;;7.13;5.40;;;;;;;;;;5007754;28;20294;-48
2021/03/15 07:57:23;;;;;;;9.47;6.03;;;;;;;;;;5013980;28;20231;-47
2021/03/15 07:59:57;;;;;;;8.63;5.57;;;;;;;;;;4984332;28;20203;-46
2021/03/15 08:02:24;;;;;;;6.30;5.43;;;;;;;;;;4997319;28;20192;-48
2021/03/15 08:04:51;;;;;;;7.47;6.07;;;;;;;;;;4999969;28;20207;-46
2021/03/15 08:07:17;;;;;;;6.17;4.77;;;;;;;;;;5001363;28;20218;-47
2021/03/15 08:09:48;;;;;;;7.33;6.53;;;;;;;;;;5000800;28;20283;-46
2021/03/15 08:12:15;;;;;;;5.83;4.90;;;;;;;;;;5010185;28;20195;-48
2021/03/15 08:14:46;;;;;;;6.13;5.53;;;;;;;;;;4991749;28;20207;-49
2021/03/15 08:17:16;;;;;;;6.00;5.40;;;;;;;;;;5003324;28;20191;-48
2021/03/15 08:19:43;;;;;;;6.13;5.50;;;;;;;;;;4996493;28;20196;-46
2021/03/15 08:22:09;;;;;;;7.93;6.40;;;;;;;;;;5008886;28;20275;-46
2021/03/15 08:24:38;;;;;;;8.17;5.87;;;;;;;;;;5015290;28;20241;-49
2021/03/15 08:27:04;;;;;;;7.80;6.13;;;;;;;;;;5017553;28;20283;-50
2021/03/15 08:29:34;;;;;;;6.63;5.70;;;;;;;;;;5006100;28;20226;-48
2021/03/15 08:32:00;;;;;;;5.60;5.07;;;;;;;;;;5004974;28;20206;-47
2021/03/15 08:34:26;;;;;;;7.80;5.77;;;;;;;;;;5005152;28;20346;-49
2021/03/15 08:36:52;;;;;;;13.03;6.47;;;;;;;;;;5009342;28;20183;-47
2021/03/15 08:39:26;;;;;;;13.97;6.27;;;;;;;;;;4988613;28;22293;-47
2021/03/15 08:42:13;;;;;;;7.20;5.93;;;;;;;;;;4987077;28;20225;-48
2021/03/15 08:44:40;;;;;;;8.50;5.80;;;;;;;;;;5005848;28;20207;-48
2021/03/15 08:47:06;;;;;;;10.13;6.27;;;;;;;;;;5006030;28;20643;-48
2021/03/15 08:49:34;;;;;;;8.60;5.80;;;;;;;;;;5005469;28;20270;-48
2021/03/15 08:51:59;;;;;;;7.00;5.13;;;;;;;;;;5006543;28;20184;-50
2021/03/15 08:54:42;;;;;;;8.83;5.50;;;;;;;;;;5006019;28;20226;-49
2021/03/15 08:57:29;;;;;;;5.10;4.10;;;;;;;;;;5001549;28;20195;-47
2021/03/15 08:59:55;;;;;;;11.40;4.67;;;;;;;;;;4992784;28;20635;-46
2021/03/15 09:02:41;;;;;;;6.30;4.27;;;;;;;;;;4993775;28;20202;-48
2021/03/15 09:05:20;;;;;;;5.77;4.33;;;;;;;;;;5006492;28;20267;-48
2021/03/15 09:07:46;;;;;;;8.30;4.27;;;;;;;;;;5005138;28;20187;-48
2021/03/15 09:10:24;;;;;;;7.70;4.73;;;;;;;;;;5006588;28;20191;-49
2021/03/15 09:13:17;;;;;;;5.97;4.20;;;;;;;;;;5007457;28;20191;-48
2021/03/15 09:15:50;;;;;;;4.30;3.73;;;;;;;;;;5005034;28;20573;-49
2021/03/15 09:18:37;;;;;;;7.23;4.77;;;;;;;;;;5005547;28;20235;-48
2021/03/15 09:21:03;;;;;;;3.80;3.30;;;;;;;;;;5001216;28;20197;-46
2021/03/15 09:23:32;;;;;;;4.77;3.00;;;;;;;;;;4997216;28;20266;-49
2021/03/15 09:26:25;;;;;;;5.60;3.17;;;;;;;;;;5010997;28;20283;-46
2021/03/15 09:28:52;;;;;;;5.77;2.87;;;;;;;;;;5001642;28;20191;-45
2021/03/15 09:31:18;;;;;;;4.70;2.70;;;;;;;;;;5005473;28;20213;-46
2021/03/15 09:33:44;;;;;;;7.60;2.77;;;;;;;;;;5005739;28;20195;-54
2021/03/15 09:36:10;;;;;;;4.07;2.73;;;;;;;;;;5003038;28;20218;-49
2021/03/15 09:38:36;;;;;;;5.20;3.10;;;;;;;;;;4998602;28;20215;-49
2021/03/15 09:41:05;;;;;;;3.20;2.40;;;;;;;;;;5006220;28;20198;-48
2021/03/15 09:43:31;;;;;;;4.40;2.30;;;;;;;;;;5005739;28;20656;-47
2021/03/15 09:45:59;;;;;;;5.20;2.40;;;;;;;;;;5001549;28;20211;-49
2021/03/15 09:48:25;;;;;;;4.60;2.33;;;;;;;;;;4997569;28;20223;-48
2021/03/15 09:50:52;;;;;;;7.47;2.70;;;;;;;;;;5007839;28;20190;-48
2021/03/15 09:53:19;;;;;;;4.13;2.47;;;;;;;;;;5005992;28;20277;-49
2021/03/15 09:55:45;;;;;;;4.63;2.10;;;;;;;;;;5005482;28;20215;-49
2021/03/15 09:58:17;;;;;;;5.60;1.83;;;;;;;;;;4989226;28;20218;-47
2021/03/15 10:00:43;;;;;;;5.90;1.60;;;;;;;;;;4985196;28;20275;-46
2021/03/15 10:03:21;;;;;;;9.07;2.40;;;;;;;;;;5003466;28;20196;-47
2021/03/15 10:05:48;;;;;;;4.17;2.00;;;;;;;;;;5004330;28;20211;-47
2021/03/15 10:08:14;;;;;;;8.67;2.30;;;;;;;;;;4994594;28;20207;-47
2021/03/15 10:10:39;;;;;;;11.20;2.40;;;;;;;;;;4994515;28;20191;-48
2021/03/15 10:13:06;;;;;;;19.33;2.60;;;;;;;;;;4997364;28;20195;-50
2021/03/15 10:15:32;;;;;;;11.30;2.70;;;;;;;;;;4999929;28;20220;-47
2021/03/15 10:17:57;;;;;;;7.50;2.57;;;;;;;;;;5003253;28;20285;-48
2021/03/15 10:20:31;;;;;;;8.20;2.90;;;;;;;;;;5004787;28;20199;-50
2021/03/15 10:23:07;;;;;;;5.53;2.50;;;;;;;;;;5008520;28;20210;-48
2021/03/15 10:25:33;;;;;;;8.90;2.13;;;;;;;;;;4986953;28;20210;-49
2021/03/15 10:27:58;;;;;;;9.10;2.07;;;;;;;;;;5002782;28;20253;-51
2021/03/15 10:30:29;;;;;;;5.43;2.40;;;;;;;;;;5001886;28;20187;-52
2021/03/15 10:32:55;;;;;;;8.83;2.47;;;;;;;;;;5003722;28;20224;-47
2021/03/15 10:35:21;;;;;;;4.60;2.60;;;;;;;;;;5000171;28;20222;-47
2021/03/15 10:37:50;;;;;;;7.73;2.33;;;;;;;;;;4988828;28;20195;-50
2021/03/15 10:40:19;;;;;;;5.50;2.63;;;;;;;;;;5001540;28;20210;-48
2021/03/15 10:42:45;;;;;;;7.30;2.50;;;;;;;;;;4999857;28;20191;-46
2021/03/15 10:45:12;;;;;;;6.13;2.37;;;;;;;;;;4999330;28;20207;-49
2021/03/15 10:47:39;;;;;;;7.80;3.00;;;;;;;;;;5004602;28;20191;-49
2021/03/15 10:50:26;;;;;;;6.07;3.30;;;;;;;;;;5001684;28;20191;-47
2021/03/15 10:52:51;;;;;;;7.20;3.30;;;;;;;;;;5002399;28;20203;-50
2021/03/15 10:55:20;;;;;;;5.93;2.90;;;;;;;;;;5002609;28;20281;-48
2021/03/15 10:58:06;;;;;;;11.43;2.67;;;;;;;;;;5002523;28;20326;-48
2021/03/15 11:00:53;;;;;;;7.30;2.97;;;;;;;;;;5003876;28;20409;-48
2021/03/15 11:03:21;;;;;;;4.67;2.97;;;;;;;;;;5006340;28;20253;-49
2021/03/15 11:05:46;;;;;;;5.70;2.33;;;;;;;;;;4986993;28;20306;-46
2021/03/15 11:08:19;;;;;;;8.90;3.80;;;;;;;;;;5007005;28;20752;-48
2021/03/15 11:10:45;;;;;;;9.17;3.40;;;;;;;;;;5006797;28;20195;-49
2021/03/15 11:13:19;;;;;;;7.47;3.73;;;;;;;;;;5005289;28;20199;-48
2021/03/15 11:15:45;;;;;;;6.47;3.73;;;;;;;;;;5005691;28;20210;-47
2021/03/15 11:18:16;;;;;;;5.27;3.30;;;;;;;;;;5007568;28;20184;-48
2021/03/15 11:20:58;;;;;;;9.17;3.60;;;;;;;;;;5007236;28;20190;-48
2021/03/15 11:23:32;;;;;;;8.30;3.60;;;;;;;;;;4996991;28;20280;-48
2021/03/15 11:26:01;;;;;;;7.87;3.17;;;;;;;;;;5006785;28;20695;-47
2021/03/15 11:28:32;;;;;;;7.67;3.30;;;;;;;;;;5004749;28;20188;-49
2021/03/15 11:30:59;;;;;;;5.93;3.30;;;;;;;;;;4999808;28;20576;-48
2021/03/15 11:33:25;;;;;;;9.30;3.90;;;;;;;;;;5001524;28;20226;-49
2021/03/15 11:35:51;;;;;;;5.33;2.30;;;;;;;;;;4983506;28;20566;-50
2021/03/15 11:38:22;;;;;;;9.10;3.17;;;;;;;;;;5009771;28;20209;-48
2021/03/15 11:40:47;;;;;;;6.50;3.07;;;;;;;;;;5004381;28;20283;-47
2021/03/15 11:43:13;;;;;;;6.57;3.20;;;;;;;;;;5001738;28;20246;-50
2021/03/15 11:45:39;;;;;;;8.37;3.67;;;;;;;;;;5000634;28;20307;-47
2021/03/15 11:48:05;;;;;;;6.03;3.33;;;;;;;;;;5007137;28;20274;-46
2021/03/15 11:50:32;;;;;;;8.83;4.00;;;;;;;;;;5000715;28;20211;-51
2021/03/15 11:52:58;;;;;;;7.40;3.50;;;;;;;;;;5011490;28;20277;-50
2021/03/15 11:55:24;;;;;;;9.17;3.57;;;;;;;;;;4989978;28;20299;-50
2021/03/15 11:57:49;;;;;;;9.57;4.23;;;;;;;;;;5003725;28;20204;-47
2021/03/15 12:00:18;;;;;;;8.90;4.13;;;;;;;;;;5000879;28;20214;-47
2021/03/15 12:02:45;;;;;;;7.20;3.30;;;;;;;;;;5004746;28;20196;-46
2021/03/15 12:05:11;;;;;;;5.93;2.93;;;;;;;;;;5008738;28;20293;-51
2021/03/15 12:07:38;;;;;;;11.60;3.20;;;;;;;;;;4998908;28;20194;-54
2021/03/15 12:10:06;;;;;;;11.40;3.10;;;;;;;;;;5000079;28;20235;-46
2021/03/15 12:12:32;;;;;;;6.17;3.83;;;;;;;;;;5016267;28;20204;-53
2021/03/15 12:14:57;;;;;;;7.67;3.27;;;;;;;;;;5004976;28;20298;-48
2021/03/15 12:17:22;;;;;;;10.53;2.77;;;;;;;;;;5000322;28;20651;-55
2021/03/15 12:19:47;;;;;;;7.27;2.43;;;;;;;;;;5011487;28;20218;-48
2021/03/15 12:22:13;;;;;;;6.23;2.27;;;;;;;;;;4989268;28;20199;-47
2021/03/15 12:24:38;;;;;;;7.80;2.20;;;;;;;;;;5006228;28;20219;-50
2021/03/15 12:27:04;;;;;;;4.37;1.83;;;;;;;;;;5005410;28;20545;-55
2021/03/15 12:29:29;;;;;;;5.23;1.80;;;;;;;;;;5005334;28;20223;-48
2021/03/15 12:31:55;;;;;;;4.67;1.80;;;;;;;;;;5005250;28;20245;-51
2021/03/15 12:34:20;;;;;;;4.83;2.27;;;;;;;;;;5000921;28;20265;-48
2021/03/15 12:36:45;;;;;;;4.40;1.90;;;;;;;;;;4985344;28;20413;-49
2021/03/15 12:39:11;;;;;;;5.43;1.90;;;;;;;;;;4988151;28;20219;-49
2021/03/15 12:41:36;;;;;;;3.83;1.40;;;;;;;;;;4999904;28;20260;-46
2021/03/15 12:44:02;;;;;;;4.83;1.70;;;;;;;;;;4998066;28;20251;-48
2021/03/15 12:46:30;;;;;;;3.97;1.53;;;;;;;;;;5003463;28;20574;-49
2021/03/15 12:48:56;;;;;;;5.67;1.63;;;;;;;;;;4989201;28;20434;-50
2021/03/15 12:51:21;;;;;;;4.47;1.60;;;;;;;;;;5003412;28;20728;-50
2021/03/15 12:53:46;;;;;;;4.17;1.50;;;;;;;;;;5005708;28;20772;-49
2021/03/15 12:56:12;;;;;;;7.63;1.80;;;;;;;;;;5006669;28;20238;-51
2021/03/15 12:58:37;;;;;;;5.32;2.00;;;;;;;;;;5003051;28;20215;-49
2021/03/15 13:01:03;;;;;;;4.47;1.75;;;;;;;;;;5001795;28;20274;-51
2021/03/15 13:03:28;;;;;;;5.72;2.17;;;;;;;;;;5000412;28;20236;-49
2021/03/15 13:05:53;;;;;;;5.85;1.90;;;;;;;;;;4988198;28;20663;-51
2021/03/15 13:08:18;;;;;;;6.15;2.08;;;;;;;;;;5002574;28;20215;-49
2021/03/15 13:10:44;;;;;;;4.03;1.90;;;;;;;;;;4985355;28;20847;-48
2021/03/15 13:13:09;;;;;;;4.73;1.63;;;;;;;;;;5005232;28;20210;-50
2021/03/15 13:15:35;;;;;;;4.93;1.90;;;;;;;;;;5004374;28;20203;-48
2021/03/15 13:18:00;;;;;;;6.07;2.07;;;;;;;;;;5002500;28;20183;-49
2021/03/15 13:20:26;;;;;;;4.17;1.83;;;;;;;;;;5002273;28;20203;-48
2021/03/15 13:22:52;;;;;;;6.17;2.30;;;;;;;;;;5004718;28;20809;-49
2021/03/15 13:25:17;;;;;;;6.03;1.70;;;;;;;;;;5001242;28;20215;-48
2021/03/15 13:27:42;;;;;;;6.27;2.10;;;;;;;;;;5005499;28;20234;-49
2021/03/15 13:30:11;;;;;;;6.07;1.90;;;;;;;;;;4997689;28;20191;-47
2021/03/15 13:32:37;;;;;;;4.23;1.90;;;;;;;;;;5003654;28;20282;-50
2021/03/15 13:35:03;;;;;;;7.10;1.90;;;;;;;;;;4981588;28;20310;-49
2021/03/15 13:37:29;;;;;;;5.13;1.80;;;;;;;;;;5005045;28;20238;-48
2021/03/15 13:39:54;;;;;;;5.10;1.90;;;;;;;;;;5001479;28;20711;-49
2021/03/15 13:42:20;;;;;;;6.10;2.07;;;;;;;;;;5004411;28;20274;-49
2021/03/15 13:44:45;;;;;;;5.90;1.97;;;;;;;;;;5002321;28;20809;-49
2021/03/15 13:47:13;;;;;;;5.80;2.20;;;;;;;;;;5005078;28;20187;-53
2021/03/15 13:49:40;;;;;;;5.47;2.10;;;;;;;;;;5002692;28;20246;-50
2021/03/15 13:52:06;;;;;;;8.90;1.90;;;;;;;;;;4982204;28;20206;-50
2021/03/15 13:54:31;;;;;;;4.57;1.60;;;;;;;;;;5000446;28;20222;-50
2021/03/15 13:56:56;;;;;;;7.03;2.27;;;;;;;;;;5002556;28;22004;-49
2021/03/15 13:59:22;;;;;;;6.07;1.97;;;;;;;;;;5002737;28;21014;-49
2021/03/15 14:01:47;;;;;;;4.77;1.67;;;;;;;;;;5002571;28;20195;-53
2021/03/15 14:04:12;;;;;;;7.13;2.30;;;;;;;;;;5003835;28;20195;-48
2021/03/15 14:06:38;;;;;;;4.83;1.70;;;;;;;;;;4998522;28;20183;-49
2021/03/15 14:09:03;;;;;;;3.23;1.40;;;;;;;;;;5000706;28;20202;-48
2021/03/15 14:11:28;;;;;;;6.83;2.00;;;;;;;;;;5004452;28;20226;-50
2021/03/15 14:13:54;;;;;;;8.03;1.70;;;;;;;;;;5000764;28;20233;-50
2021/03/15 14:16:19;;;;;;;6.30;1.80;;;;;;;;;;5003483;28;20293;-51
2021/03/15 14:18:44;;;;;;;5.37;1.50;;;;;;;;;;5002995;28;20215;-48
2021/03/15 14:21:10;;;;;;;5.60;1.70;;;;;;;;;;4998967;28;20264;-50
2021/03/15 14:23:35;;;;;;;5.43;1.73;;;;;;;;;;5004485;28;20195;-53
2021/03/15 14:26:00;;;;;;;6.47;1.73;;;;;;;;;;4998607;28;20211;-48
2021/03/15 14:28:26;;;;;;;4.13;1.80;;;;;;;;;;5000793;28;20191;-51
2021/03/15 14:30:52;;;;;;;8.83;1.80;;;;;;;;;;5002704;28;21106;-50
2021/03/15 14:33:18;;;;;;;10.13;2.03;;;;;;;;;;5012572;28;20885;-52
2021/03/15 14:35:44;;;;;;;7.97;2.00;;;;;;;;;;4994897;28;20231;-50
2021/03/15 14:38:09;;;;;;;8.60;2.27;;;;;;;;;;4998905;28;20942;-50
2021/03/15 14:40:35;;;;;;;6.83;1.70;;;;;;;;;;5001009;28;21007;-48
2021/03/15 14:43:00;;;;;;;11.70;2.17;;;;;;;;;;5004396;28;20219;-46
2021/03/15 14:45:25;;;;;;;6.00;2.00;;;;;;;;;;4999751;28;20226;-48
2021/03/15 14:47:50;;;;;;;5.53;1.50;;;;;;;;;;5001627;28;20723;-52
2021/03/15 14:50:16;;;;;;;7.17;1.33;;;;;;;;;;5003624;28;20186;-50